TimeCEST,TemperatureF,Dew PointF,Humidity,Sea Level PressureIn,VisibilityMPH,Wind Direction,Wind SpeedMPH,Gust SpeedMPH,PrecipitationIn,Events,Conditions,WindDirDegrees,DateUTC
12:20 AM,71.6,55.4,57,30.09,-9999.0,WSW,3.5,-,N/A,,Clear,240,2013-08-03 22:20:00
12:50 AM,69.8,55.4,60,30.09,-9999.0,Variable,2.3,-,N/A,,Clear,0,2013-08-03 22:50:00
1:20 AM,68.0,57.2,68,30.09,-9999.0,Variable,2.3,-,N/A,,Clear,0,2013-08-03 23:20:00
1:50 AM,68.0,55.4,64,30.09,-9999.0,SW,4.6,-,N/A,,Clear,220,2013-08-03 23:50:00
2:20 AM,68.0,55.4,64,30.06,-9999.0,SW,4.6,-,N/A,,Clear,220,2013-08-04 00:20:00
2:50 AM,68.0,55.4,64,30.06,-9999.0,SSW,5.8,-,N/A,,Clear,210,2013-08-04 00:50:00
3:20 AM,68.0,55.4,64,30.06,-9999.0,SSW,4.6,-,N/A,,Clear,200,2013-08-04 01:20:00
3:50 AM,64.4,53.6,68,30.06,-9999.0,Variable,2.3,-,N/A,,Clear,0,2013-08-04 01:50:00
4:20 AM,62.6,53.6,72,30.06,-9999.0,Variable,1.2,-,N/A,,Clear,0,2013-08-04 02:20:00
4:50 AM,62.6,53.6,72,30.06,-9999.0,SSW,2.3,-,N/A,,Clear,200,2013-08-04 02:50:00
5:20 AM,62.6,55.4,77,30.09,-9999.0,SW,3.5,-,N/A,,Clear,220,2013-08-04 03:20:00
5:50 AM,64.4,53.6,68,30.09,-9999.0,SW,4.6,-,N/A,,Clear,220,2013-08-04 03:50:00
6:20 AM,62.6,53.6,72,30.09,-9999.0,Variable,2.3,-,N/A,,Clear,0,2013-08-04 04:20:00
6:50 AM,64.4,53.6,68,30.09,-9999.0,SW,2.3,-,N/A,,Clear,220,2013-08-04 04:50:00
7:20 AM,68.0,55.4,64,30.09,-9999.0,South,3.5,-,N/A,,Clear,180,2013-08-04 05:20:00
7:50 AM,71.6,57.2,60,30.09,-9999.0,Variable,2.3,-,N/A,,Clear,0,2013-08-04 05:50:00
8:20 AM,77.0,57.2,50,30.12,-9999.0,SSW,4.6,-,N/A,,Clear,210,2013-08-04 06:20:00
8:50 AM,80.6,57.2,45,30.12,-9999.0,Variable,2.3,-,N/A,,Clear,0,2013-08-04 06:50:00
9:20 AM,82.4,55.4,39,30.12,-9999.0,Variable,2.3,-,N/A,,Clear,0,2013-08-04 07:20:00
9:50 AM,86.0,55.4,35,30.12,-9999.0,Variable,2.3,-,N/A,,Clear,0,2013-08-04 07:50:00
10:20 AM,87.8,57.2,35,30.12,-9999.0,ENE,4.6,-,N/A,,Clear,70,2013-08-04 08:20:00
10:50 AM,86.0,60.8,43,30.12,-9999.0,NE,9.2,-,N/A,,Clear,50,2013-08-04 08:50:00
11:20 AM,86.0,64.4,48,30.12,-9999.0,NE,10.4,-,N/A,,Clear,50,2013-08-04 09:20:00
11:50 AM,86.0,68.0,55,30.12,-9999.0,NE,11.5,-,N/A,,Clear,50,2013-08-04 09:50:00
12:20 PM,86.0,69.8,58,30.12,-9999.0,ENE,11.5,-,N/A,,Clear,60,2013-08-04 10:20:00
12:50 PM,86.0,68.0,55,30.12,-9999.0,NE,12.7,-,N/A,,Clear,50,2013-08-04 10:50:00
1:20 PM,87.8,64.4,46,30.09,-9999.0,NE,13.8,-,N/A,,Clear,40,2013-08-04 11:20:00
1:50 PM,89.6,64.4,43,30.09,-9999.0,NE,11.5,-,N/A,,Clear,50,2013-08-04 11:50:00
2:20 PM,89.6,62.6,40,30.09,-9999.0,NE,11.5,-,N/A,,Clear,50,2013-08-04 12:20:00
2:50 PM,89.6,66.2,46,30.09,-9999.0,ENE,12.7,-,N/A,,Clear,60,2013-08-04 12:50:00
3:20 PM,91.4,62.6,38,30.09,-9999.0,ENE,11.5,-,N/A,,Clear,60,2013-08-04 13:20:00
3:50 PM,91.4,66.2,43,30.06,-9999.0,ENE,10.4,-,N/A,,Clear,70,2013-08-04 13:50:00
4:20 PM,91.4,66.2,43,30.06,-9999.0,ENE,10.4,-,N/A,,Clear,70,2013-08-04 14:20:00
4:50 PM,93.2,59.0,32,30.06,-9999.0,ENE,9.2,-,N/A,,Clear,70,2013-08-04 14:50:00
5:20 PM,93.2,59.0,32,30.06,-9999.0,East,9.2,-,N/A,,Clear,80,2013-08-04 15:20:00
5:50 PM,91.4,62.6,38,30.06,-9999.0,ENE,8.1,-,N/A,,Clear,60,2013-08-04 15:50:00
6:20 PM,89.6,62.6,40,30.06,-9999.0,ENE,6.9,-,N/A,,Clear,60,2013-08-04 16:20:00
6:50 PM,87.8,66.2,49,30.06,-9999.0,ENE,8.1,-,N/A,,Clear,70,2013-08-04 16:50:00
7:20 PM,86.0,66.2,51,30.06,-9999.0,ENE,5.8,-,N/A,,Clear,70,2013-08-04 17:20:00
7:50 PM,84.2,68.0,58,30.06,-9999.0,NE,6.9,-,N/A,,Clear,40,2013-08-04 17:50:00
8:20 PM,82.4,66.2,58,30.06,-9999.0,ENE,5.8,-,N/A,,Clear,60,2013-08-04 18:20:00
8:50 PM,78.8,66.2,65,30.06,-9999.0,East,3.5,-,N/A,,Clear,80,2013-08-04 18:50:00
9:20 PM,78.8,66.2,65,30.06,-9999.0,Variable,2.3,-,N/A,,Clear,0,2013-08-04 19:20:00
9:50 PM,77.0,64.4,65,30.06,-9999.0,Calm,Calm,-,N/A,,Clear,0,2013-08-04 19:50:00
10:20 PM,75.2,64.4,69,30.09,-9999.0,SSW,2.3,-,N/A,,Clear,200,2013-08-04 20:20:00
10:50 PM,77.0,64.4,65,30.09,-9999.0,SSW,4.6,-,N/A,,Clear,210,2013-08-04 20:50:00
11:20 PM,77.0,62.6,61,30.09,-9999.0,SW,4.6,-,N/A,,Clear,220,2013-08-04 21:20:00
11:50 PM,77.0,62.6,61,30.09,-9999.0,SW,3.5,-,N/A,,Clear,220,2013-08-04 21:50:00